sensor_id;sensor_type;location;lat;lon;timestamp;P1;durP1;ratioP1;P2;durP2;ratioP2
23617;SDS011;18207;32.078;34.818;2022-08-21T00:00:44;5.40;;;5.00;;
23617;SDS011;18207;32.078;34.818;2022-08-21T00:03:15;5.53;;;5.13;;
23617;SDS011;18207;32.078;34.818;2022-08-21T00:05:48;5.18;;;4.88;;
23617;SDS011;18207;32.078;34.818;2022-08-21T00:08:21;4.43;;;4.13;;
23617;SDS011;18207;32.078;34.818;2022-08-21T00:10:52;5.10;;;4.70;;
23617;SDS011;18207;32.078;34.818;2022-08-21T00:13:23;5.30;;;4.90;;
23617;SDS011;18207;32.078;34.818;2022-08-21T00:15:54;5.13;;;4.72;;
23617;SDS011;18207;32.078;34.818;2022-08-21T00:18:25;5.28;;;4.88;;
23617;SDS011;18207;32.078;34.818;2022-08-21T00:20:57;4.93;;;4.63;;
23617;SDS011;18207;32.078;34.818;2022-08-21T00:23:32;4.70;;;4.40;;
23617;SDS011;18207;32.078;34.818;2022-08-21T00:26:04;5.15;;;4.75;;
23617;SDS011;18207;32.078;34.818;2022-08-21T00:28:35;5.20;;;4.80;;
23617;SDS011;18207;32.078;34.818;2022-08-21T00:31:06;4.60;;;4.30;;
23617;SDS011;18207;32.078;34.818;2022-08-21T00:33:38;5.20;;;4.80;;
23617;SDS011;18207;32.078;34.818;2022-08-21T00:36:08;5.10;;;4.70;;
23617;SDS011;18207;32.078;34.818;2022-08-21T00:38:42;5.15;;;4.78;;
23617;SDS011;18207;32.078;34.818;2022-08-21T00:41:12;5.25;;;4.80;;
23617;SDS011;18207;32.078;34.818;2022-08-21T00:44:02;5.03;;;4.72;;
23617;SDS011;18207;32.078;34.818;2022-08-21T00:46:35;5.32;;;4.97;;
23617;SDS011;18207;32.078;34.818;2022-08-21T00:49:07;5.30;;;4.90;;
23617;SDS011;18207;32.078;34.818;2022-08-21T00:51:40;5.60;;;5.18;;
23617;SDS011;18207;32.078;34.818;2022-08-21T00:54:22;5.22;;;4.82;;
23617;SDS011;18207;32.078;34.818;2022-08-21T00:56:57;4.97;;;4.68;;
23617;SDS011;18207;32.078;34.818;2022-08-21T00:59:35;5.03;;;4.72;;
23617;SDS011;18207;32.078;34.818;2022-08-21T01:02:09;5.03;;;4.72;;
23617;SDS011;18207;32.078;34.818;2022-08-21T01:04:41;5.82;;;5.32;;
23617;SDS011;18207;32.078;34.818;2022-08-21T01:07:12;5.60;;;5.20;;
23617;SDS011;18207;32.078;34.818;2022-08-21T01:09:47;5.18;;;4.78;;
23617;SDS011;18207;32.078;34.818;2022-08-21T01:12:18;5.35;;;4.95;;
23617;SDS011;18207;32.078;34.818;2022-08-21T01:14:48;5.57;;;5.07;;
23617;SDS011;18207;32.078;34.818;2022-08-21T01:17:19;5.30;;;4.93;;
23617;SDS011;18207;32.078;34.818;2022-08-21T01:19:52;5.30;;;4.80;;
23617;SDS011;18207;32.078;34.818;2022-08-21T01:22:28;5.15;;;4.78;;
23617;SDS011;18207;32.078;34.818;2022-08-21T01:24:59;5.30;;;4.90;;
23617;SDS011;18207;32.078;34.818;2022-08-21T01:27:31;5.70;;;5.20;;
23617;SDS011;18207;32.078;34.818;2022-08-21T01:30:04;5.43;;;5.10;;
23617;SDS011;18207;32.078;34.818;2022-08-21T01:32:42;5.53;;;5.13;;
23617;SDS011;18207;32.078;34.818;2022-08-21T01:35:14;5.63;;;5.22;;
23617;SDS011;18207;32.078;34.818;2022-08-21T01:37:50;5.40;;;5.00;;
23617;SDS011;18207;32.078;34.818;2022-08-21T01:40:21;5.32;;;4.93;;
23617;SDS011;18207;32.078;34.818;2022-08-21T01:42:52;5.53;;;5.13;;
23617;SDS011;18207;32.078;34.818;2022-08-21T01:45:24;5.63;;;5.18;;
23617;SDS011;18207;32.078;34.818;2022-08-21T01:47:55;5.68;;;5.28;;
23617;SDS011;18207;32.078;34.818;2022-08-21T01:50:25;5.22;;;4.82;;
23617;SDS011;18207;32.078;34.818;2022-08-21T01:52:58;6.25;;;5.47;;
23617;SDS011;18207;32.078;34.818;2022-08-21T01:55:28;5.78;;;5.38;;
23617;SDS011;18207;32.078;34.818;2022-08-21T01:57:59;5.40;;;5.00;;
23617;SDS011;18207;32.078;34.818;2022-08-21T02:00:30;5.15;;;4.75;;
23617;SDS011;18207;32.078;34.818;2022-08-21T02:03:01;5.47;;;5.00;;
23617;SDS011;18207;32.078;34.818;2022-08-21T02:05:32;5.35;;;4.95;;
23617;SDS011;18207;32.078;34.818;2022-08-21T02:08:05;5.50;;;5.07;;
23617;SDS011;18207;32.078;34.818;2022-08-21T02:10:36;4.97;;;4.68;;
23617;SDS011;18207;32.078;34.818;2022-08-21T02:13:14;5.03;;;4.63;;
23617;SDS011;18207;32.078;34.818;2022-08-21T02:15:45;4.90;;;4.60;;
23617;SDS011;18207;32.078;34.818;2022-08-21T02:18:17;4.60;;;4.30;;
23617;SDS011;18207;32.078;34.818;2022-08-21T02:20:48;4.75;;;4.45;;
23617;SDS011;18207;32.078;34.818;2022-08-21T02:23:24;4.95;;;4.55;;
23617;SDS011;18207;32.078;34.818;2022-08-21T02:25:54;5.20;;;4.80;;
23617;SDS011;18207;32.078;34.818;2022-08-21T02:28:27;4.97;;;4.63;;
23617;SDS011;18207;32.078;34.818;2022-08-21T02:30:58;4.75;;;4.43;;
23617;SDS011;18207;32.078;34.818;2022-08-21T02:33:29;4.88;;;4.47;;
23617;SDS011;18207;32.078;34.818;2022-08-21T02:36:01;4.20;;;3.90;;
23617;SDS011;18207;32.078;34.818;2022-08-21T02:38:35;5.00;;;4.70;;
23617;SDS011;18207;32.078;34.818;2022-08-21T02:41:09;4.95;;;4.55;;
23617;SDS011;18207;32.078;34.818;2022-08-21T02:43:45;4.95;;;4.63;;
23617;SDS011;18207;32.078;34.818;2022-08-21T02:46:16;4.88;;;4.47;;
23617;SDS011;18207;32.078;34.818;2022-08-21T02:48:50;4.72;;;4.43;;
23617;SDS011;18207;32.078;34.818;2022-08-21T02:51:21;4.75;;;4.45;;
23617;SDS011;18207;32.078;34.818;2022-08-21T02:53:54;4.60;;;4.30;;
23617;SDS011;18207;32.078;34.818;2022-08-21T02:56:25;4.43;;;4.13;;
23617;SDS011;18207;32.078;34.818;2022-08-21T02:58:57;4.05;;;3.85;;
23617;SDS011;18207;32.078;34.818;2022-08-21T03:01:27;4.03;;;3.80;;
23617;SDS011;18207;32.078;34.818;2022-08-21T03:03:58;5.00;;;4.60;;
23617;SDS011;18207;32.078;34.818;2022-08-21T03:06:29;4.60;;;4.20;;
23617;SDS011;18207;32.078;34.818;2022-08-21T03:09:03;4.43;;;4.13;;
23617;SDS011;18207;32.078;34.818;2022-08-21T03:11:34;4.45;;;4.15;;
23617;SDS011;18207;32.078;34.818;2022-08-21T03:14:05;4.38;;;4.07;;
23617;SDS011;18207;32.078;34.818;2022-08-21T03:16:35;5.18;;;4.70;;
23617;SDS011;18207;32.078;34.818;2022-08-21T03:19:06;4.63;;;4.32;;
23617;SDS011;18207;32.078;34.818;2022-08-21T03:21:37;4.45;;;4.15;;
23617;SDS011;18207;32.078;34.818;2022-08-21T03:24:10;3.95;;;3.75;;
23617;SDS011;18207;32.078;34.818;2022-08-21T03:26:44;4.55;;;4.25;;
23617;SDS011;18207;32.078;34.818;2022-08-21T03:29:15;4.80;;;4.40;;
23617;SDS011;18207;32.078;34.818;2022-08-21T03:31:46;4.45;;;4.05;;
23617;SDS011;18207;32.078;34.818;2022-08-21T03:34:17;4.65;;;4.25;;
23617;SDS011;18207;32.078;34.818;2022-08-21T03:36:47;4.20;;;3.88;;
23617;SDS011;18207;32.078;34.818;2022-08-21T03:39:20;4.20;;;3.90;;
23617;SDS011;18207;32.078;34.818;2022-08-21T03:41:51;4.28;;;3.97;;
23617;SDS011;18207;32.078;34.818;2022-08-21T03:44:22;4.38;;;3.97;;
23617;SDS011;18207;32.078;34.818;2022-08-21T03:46:53;4.38;;;4.07;;
23617;SDS011;18207;32.078;34.818;2022-08-21T03:49:25;4.30;;;4.00;;
23617;SDS011;18207;32.078;34.818;2022-08-21T03:51:56;4.47;;;4.18;;
23617;SDS011;18207;32.078;34.818;2022-08-21T03:54:29;4.97;;;4.57;;
23617;SDS011;18207;32.078;34.818;2022-08-21T03:57:01;4.40;;;4.10;;
23617;SDS011;18207;32.078;34.818;2022-08-21T03:59:32;4.57;;;4.28;;
23617;SDS011;18207;32.078;34.818;2022-08-21T04:02:04;4.53;;;4.20;;
23617;SDS011;18207;32.078;34.818;2022-08-21T04:04:36;4.53;;;4.22;;
23617;SDS011;18207;32.078;34.818;2022-08-21T04:07:06;4.07;;;3.85;;
23617;SDS011;18207;32.078;34.818;2022-08-21T04:09:39;4.20;;;3.90;;
23617;SDS011;18207;32.078;34.818;2022-08-21T04:12:09;4.32;;;4.03;;
23617;SDS011;18207;32.078;34.818;2022-08-21T04:14:40;4.78;;;4.47;;
23617;SDS011;18207;32.078;34.818;2022-08-21T04:17:11;4.45;;;4.15;;
23617;SDS011;18207;32.078;34.818;2022-08-21T04:19:43;4.75;;;4.35;;
23617;SDS011;18207;32.078;34.818;2022-08-21T04:22:19;4.35;;;4.05;;
23617;SDS011;18207;32.078;34.818;2022-08-21T04:24:51;5.30;;;4.90;;
23617;SDS011;18207;32.078;34.818;2022-08-21T04:27:22;4.60;;;4.20;;
23617;SDS011;18207;32.078;34.818;2022-08-21T04:29:53;4.38;;;4.07;;
23617;SDS011;18207;32.078;34.818;2022-08-21T04:32:24;4.28;;;3.97;;
23617;SDS011;18207;32.078;34.818;2022-08-21T04:34:58;4.38;;;4.07;;
23617;SDS011;18207;32.078;34.818;2022-08-21T04:37:31;4.13;;;3.83;;
23617;SDS011;18207;32.078;34.818;2022-08-21T04:40:11;4.10;;;3.80;;
23617;SDS011;18207;32.078;34.818;2022-08-21T04:42:45;4.18;;;3.88;;
23617;SDS011;18207;32.078;34.818;2022-08-21T04:45:19;4.22;;;3.85;;
23617;SDS011;18207;32.078;34.818;2022-08-21T04:47:53;4.30;;;4.00;;
23617;SDS011;18207;32.078;34.818;2022-08-21T04:50:27;4.22;;;3.97;;
23617;SDS011;18207;32.078;34.818;2022-08-21T04:53:05;4.25;;;3.92;;
23617;SDS011;18207;32.078;34.818;2022-08-21T04:55:45;3.75;;;3.55;;
23617;SDS011;18207;32.078;34.818;2022-08-21T04:58:20;3.78;;;3.47;;
23617;SDS011;18207;32.078;34.818;2022-08-21T05:00:55;3.78;;;3.47;;
23617;SDS011;18207;32.078;34.818;2022-08-21T05:03:29;3.63;;;3.42;;
23617;SDS011;18207;32.078;34.818;2022-08-21T05:06:05;3.95;;;3.65;;
23617;SDS011;18207;32.078;34.818;2022-08-21T05:08:41;3.88;;;3.58;;
23617;SDS011;18207;32.078;34.818;2022-08-21T05:11:29;3.70;;;3.50;;
23617;SDS011;18207;32.078;34.818;2022-08-21T05:14:02;3.65;;;3.45;;
23617;SDS011;18207;32.078;34.818;2022-08-21T05:16:33;3.80;;;3.50;;
23617;SDS011;18207;32.078;34.818;2022-08-21T05:19:05;3.55;;;3.25;;
23617;SDS011;18207;32.078;34.818;2022-08-21T05:21:38;3.28;;;3.08;;
23617;SDS011;18207;32.078;34.818;2022-08-21T05:24:12;3.05;;;2.85;;
23617;SDS011;18207;32.078;34.818;2022-08-21T05:26:47;3.17;;;2.97;;
23617;SDS011;18207;32.078;34.818;2022-08-21T05:29:18;3.25;;;3.05;;
23617;SDS011;18207;32.078;34.818;2022-08-21T05:31:48;3.30;;;3.00;;
23617;SDS011;18207;32.078;34.818;2022-08-21T05:34:20;3.42;;;3.13;;
23617;SDS011;18207;32.078;34.818;2022-08-21T05:36:52;2.88;;;2.72;;
23617;SDS011;18207;32.078;34.818;2022-08-21T05:39:23;3.17;;;2.97;;
23617;SDS011;18207;32.078;34.818;2022-08-21T05:42:15;3.13;;;2.92;;
23617;SDS011;18207;32.078;34.818;2022-08-21T05:44:47;2.92;;;2.72;;
23617;SDS011;18207;32.078;34.818;2022-08-21T05:47:19;3.15;;;2.95;;
23617;SDS011;18207;32.078;34.818;2022-08-21T05:49:50;3.05;;;2.85;;
23617;SDS011;18207;32.078;34.818;2022-08-21T05:52:20;3.20;;;3.00;;
23617;SDS011;18207;32.078;34.818;2022-08-21T05:54:51;3.10;;;2.90;;
23617;SDS011;18207;32.078;34.818;2022-08-21T05:57:24;2.90;;;2.70;;
23617;SDS011;18207;32.078;34.818;2022-08-21T05:59:55;2.95;;;2.72;;
23617;SDS011;18207;32.078;34.818;2022-08-21T06:02:27;3.40;;;3.20;;
23617;SDS011;18207;32.078;34.818;2022-08-21T06:04:58;2.80;;;2.70;;
23617;SDS011;18207;32.078;34.818;2022-08-21T06:07:29;3.00;;;2.80;;
23617;SDS011;18207;32.078;34.818;2022-08-21T06:10:00;2.90;;;2.70;;
23617;SDS011;18207;32.078;34.818;2022-08-21T06:12:34;2.85;;;2.72;;
23617;SDS011;18207;32.078;34.818;2022-08-21T06:15:08;2.70;;;2.53;;
23617;SDS011;18207;32.078;34.818;2022-08-21T06:17:39;2.90;;;2.70;;
23617;SDS011;18207;32.078;34.818;2022-08-21T06:20:09;2.85;;;2.65;;
23617;SDS011;18207;32.078;34.818;2022-08-21T06:22:40;2.78;;;2.67;;
23617;SDS011;18207;32.078;34.818;2022-08-21T06:25:11;2.80;;;2.60;;
23617;SDS011;18207;32.078;34.818;2022-08-21T06:27:42;2.80;;;2.60;;
23617;SDS011;18207;32.078;34.818;2022-08-21T06:30:13;2.85;;;2.58;;
23617;SDS011;18207;32.078;34.818;2022-08-21T06:32:43;3.10;;;2.60;;
23617;SDS011;18207;32.078;34.818;2022-08-21T06:35:14;3.63;;;2.72;;
23617;SDS011;18207;32.078;34.818;2022-08-21T06:37:45;2.50;;;2.35;;
23617;SDS011;18207;32.078;34.818;2022-08-21T06:40:16;3.20;;;3.00;;
23617;SDS011;18207;32.078;34.818;2022-08-21T06:42:49;2.97;;;2.78;;
23617;SDS011;18207;32.078;34.818;2022-08-21T06:45:21;2.70;;;2.60;;
23617;SDS011;18207;32.078;34.818;2022-08-21T06:47:53;2.97;;;2.78;;
23617;SDS011;18207;32.078;34.818;2022-08-21T06:50:24;2.80;;;2.60;;
23617;SDS011;18207;32.078;34.818;2022-08-21T06:53:00;2.88;;;2.67;;
23617;SDS011;18207;32.078;34.818;2022-08-21T06:55:33;2.80;;;2.60;;
23617;SDS011;18207;32.078;34.818;2022-08-21T06:58:06;2.90;;;2.70;;
23617;SDS011;18207;32.078;34.818;2022-08-21T07:00:38;2.70;;;2.50;;
23617;SDS011;18207;32.078;34.818;2022-08-21T07:03:22;2.70;;;2.50;;
23617;SDS011;18207;32.078;34.818;2022-08-21T07:05:56;3.00;;;2.80;;
23617;SDS011;18207;32.078;34.818;2022-08-21T07:08:31;2.70;;;2.50;;
23617;SDS011;18207;32.078;34.818;2022-08-21T07:11:09;3.03;;;2.72;;
23617;SDS011;18207;32.078;34.818;2022-08-21T07:13:55;2.72;;;2.53;;
23617;SDS011;18207;32.078;34.818;2022-08-21T07:16:26;3.10;;;2.90;;
23617;SDS011;18207;32.078;34.818;2022-08-21T07:18:57;2.90;;;2.70;;
23617;SDS011;18207;32.078;34.818;2022-08-21T07:21:27;3.00;;;2.80;;
23617;SDS011;18207;32.078;34.818;2022-08-21T07:23:59;3.20;;;2.90;;
23617;SDS011;18207;32.078;34.818;2022-08-21T07:26:30;3.00;;;2.80;;
23617;SDS011;18207;32.078;34.818;2022-08-21T07:29:03;3.00;;;2.80;;
23617;SDS011;18207;32.078;34.818;2022-08-21T07:31:33;2.97;;;2.78;;
23617;SDS011;18207;32.078;34.818;2022-08-21T07:34:04;3.08;;;2.88;;
23617;SDS011;18207;32.078;34.818;2022-08-21T07:36:35;3.22;;;2.85;;
23617;SDS011;18207;32.078;34.818;2022-08-21T07:39:06;3.17;;;2.97;;
23617;SDS011;18207;32.078;34.818;2022-08-21T07:41:36;3.25;;;2.95;;
23617;SDS011;18207;32.078;34.818;2022-08-21T07:44:09;2.88;;;2.67;;
23617;SDS011;18207;32.078;34.818;2022-08-21T07:46:40;3.03;;;2.83;;
23617;SDS011;18207;32.078;34.818;2022-08-21T07:49:11;3.28;;;2.95;;
23617;SDS011;18207;32.078;34.818;2022-08-21T07:51:41;3.75;;;2.90;;
23617;SDS011;18207;32.078;34.818;2022-08-21T07:54:13;3.08;;;2.88;;
23617;SDS011;18207;32.078;34.818;2022-08-21T07:56:58;2.55;;;2.45;;
23617;SDS011;18207;32.078;34.818;2022-08-21T07:59:31;2.80;;;2.60;;
23617;SDS011;18207;32.078;34.818;2022-08-21T08:02:03;3.20;;;2.90;;
23617;SDS011;18207;32.078;34.818;2022-08-21T08:04:34;2.65;;;2.55;;
23617;SDS011;18207;32.078;34.818;2022-08-21T08:07:16;2.65;;;2.53;;
23617;SDS011;18207;32.078;34.818;2022-08-21T08:09:47;2.60;;;2.50;;
23617;SDS011;18207;32.078;34.818;2022-08-21T08:12:18;2.58;;;2.38;;
23617;SDS011;18207;32.078;34.818;2022-08-21T08:14:51;2.80;;;2.60;;
23617;SDS011;18207;32.078;34.818;2022-08-21T08:17:21;2.60;;;2.40;;
23617;SDS011;18207;32.078;34.818;2022-08-21T08:19:53;2.55;;;2.35;;
23617;SDS011;18207;32.078;34.818;2022-08-21T08:22:24;2.70;;;2.50;;
23617;SDS011;18207;32.078;34.818;2022-08-21T08:24:55;2.40;;;2.17;;
23617;SDS011;18207;32.078;34.818;2022-08-21T08:27:27;2.60;;;2.40;;
23617;SDS011;18207;32.078;34.818;2022-08-21T08:29:59;2.60;;;2.40;;
23617;SDS011;18207;32.078;34.818;2022-08-21T08:32:30;2.50;;;2.40;;
23617;SDS011;18207;32.078;34.818;2022-08-21T08:35:00;2.30;;;2.20;;
23617;SDS011;18207;32.078;34.818;2022-08-21T08:37:33;2.70;;;2.50;;
23617;SDS011;18207;32.078;34.818;2022-08-21T08:40:10;2.33;;;2.22;;
23617;SDS011;18207;32.078;34.818;2022-08-21T08:42:44;2.53;;;2.40;;
23617;SDS011;18207;32.078;34.818;2022-08-21T08:45:20;2.60;;;2.40;;
23617;SDS011;18207;32.078;34.818;2022-08-21T08:47:55;2.45;;;2.28;;
23617;SDS011;18207;32.078;34.818;2022-08-21T08:50:41;2.10;;;2.00;;
23617;SDS011;18207;32.078;34.818;2022-08-21T08:53:17;2.13;;;2.03;;
23617;SDS011;18207;32.078;34.818;2022-08-21T08:56:02;2.60;;;2.40;;
23617;SDS011;18207;32.078;34.818;2022-08-21T08:58:36;2.30;;;2.20;;
23617;SDS011;18207;32.078;34.818;2022-08-21T09:01:15;2.30;;;2.20;;
23617;SDS011;18207;32.078;34.818;2022-08-21T09:03:51;2.20;;;2.00;;
23617;SDS011;18207;32.078;34.818;2022-08-21T09:06:27;2.00;;;1.90;;
23617;SDS011;18207;32.078;34.818;2022-08-21T09:09:11;2.00;;;1.90;;
23617;SDS011;18207;32.078;34.818;2022-08-21T09:12:00;1.90;;;1.70;;
23617;SDS011;18207;32.078;34.818;2022-08-21T09:14:50;1.90;;;1.80;;
23617;SDS011;18207;32.078;34.818;2022-08-21T09:17:37;1.95;;;1.85;;
23617;SDS011;18207;32.078;34.818;2022-08-21T09:20:41;1.60;;;1.60;;
23617;SDS011;18207;32.078;34.818;2022-08-21T09:23:32;1.80;;;1.70;;
23617;SDS011;18207;32.078;34.818;2022-08-21T09:26:15;1.80;;;1.70;;
23617;SDS011;18207;32.078;34.818;2022-08-21T09:28:50;1.88;;;1.77;;
23617;SDS011;18207;32.078;34.818;2022-08-21T09:31:26;1.75;;;1.65;;
23617;SDS011;18207;32.078;34.818;2022-08-21T09:34:03;1.85;;;1.70;;
23617;SDS011;18207;32.078;34.818;2022-08-21T09:36:37;1.77;;;1.67;;
23617;SDS011;18207;32.078;34.818;2022-08-21T09:39:12;2.00;;;1.90;;
23617;SDS011;18207;32.078;34.818;2022-08-21T09:41:58;1.80;;;1.70;;
23617;SDS011;18207;32.078;34.818;2022-08-21T09:44:33;1.85;;;1.75;;
23617;SDS011;18207;32.078;34.818;2022-08-21T09:47:10;1.60;;;1.60;;
23617;SDS011;18207;32.078;34.818;2022-08-21T09:49:44;1.60;;;1.50;;
23617;SDS011;18207;32.078;34.818;2022-08-21T09:52:16;1.77;;;1.67;;
23617;SDS011;18207;32.078;34.818;2022-08-21T09:54:50;1.48;;;1.48;;
23617;SDS011;18207;32.078;34.818;2022-08-21T09:57:24;2.28;;;1.60;;
23617;SDS011;18207;32.078;34.818;2022-08-21T10:00:18;1.80;;;1.70;;
23617;SDS011;18207;32.078;34.818;2022-08-21T10:03:08;1.73;;;1.63;;
23617;SDS011;18207;32.078;34.818;2022-08-21T10:05:53;1.60;;;1.50;;
23617;SDS011;18207;32.078;34.818;2022-08-21T10:08:29;1.67;;;1.58;;
23617;SDS011;18207;32.078;34.818;2022-08-21T10:11:05;1.52;;;1.50;;
23617;SDS011;18207;32.078;34.818;2022-08-21T10:13:46;1.58;;;1.48;;
23617;SDS011;18207;32.078;34.818;2022-08-21T10:16:30;1.70;;;1.60;;
23617;SDS011;18207;32.078;34.818;2022-08-21T10:19:14;1.35;;;1.30;;
23617;SDS011;18207;32.078;34.818;2022-08-21T10:22:02;1.40;;;1.30;;
23617;SDS011;18207;32.078;34.818;2022-08-21T10:24:50;1.70;;;1.60;;
23617;SDS011;18207;32.078;34.818;2022-08-21T10:27:33;1.73;;;1.63;;
23617;SDS011;18207;32.078;34.818;2022-08-21T10:30:18;1.48;;;1.38;;
23617;SDS011;18207;32.078;34.818;2022-08-21T10:36:09;1.45;;;1.38;;
23617;SDS011;18207;32.078;34.818;2022-08-21T10:45:15;1.83;;;1.50;;
23617;SDS011;18207;32.078;34.818;2022-08-21T10:48:02;1.58;;;1.48;;
23617;SDS011;18207;32.078;34.818;2022-08-21T10:50:37;1.70;;;1.60;;
23617;SDS011;18207;32.078;34.818;2022-08-21T10:53:29;1.70;;;1.60;;
23617;SDS011;18207;32.078;34.818;2022-08-21T10:56:19;2.38;;;1.77;;
23617;SDS011;18207;32.078;34.818;2022-08-21T10:59:00;1.80;;;1.70;;
23617;SDS011;18207;32.078;34.818;2022-08-21T11:01:51;1.55;;;1.52;;
23617;SDS011;18207;32.078;34.818;2022-08-21T11:04:30;1.80;;;1.70;;
23617;SDS011;18207;32.078;34.818;2022-08-21T11:07:16;1.77;;;1.67;;
23617;SDS011;18207;32.078;34.818;2022-08-21T11:10:00;1.67;;;1.58;;
23617;SDS011;18207;32.078;34.818;2022-08-21T11:12:47;1.70;;;1.60;;
23617;SDS011;18207;32.078;34.818;2022-08-21T11:15:32;1.55;;;1.45;;
23617;SDS011;18207;32.078;34.818;2022-08-21T11:18:21;2.20;;;1.70;;
23617;SDS011;18207;32.078;34.818;2022-08-21T11:21:10;1.55;;;1.50;;
23617;SDS011;18207;32.078;34.818;2022-08-21T11:24:00;1.52;;;1.50;;
23617;SDS011;18207;32.078;34.818;2022-08-21T11:26:45;1.50;;;1.40;;
23617;SDS011;18207;32.078;34.818;2022-08-21T11:29:26;1.70;;;1.60;;
23617;SDS011;18207;32.078;34.818;2022-08-21T11:32:06;1.70;;;1.60;;
23617;SDS011;18207;32.078;34.818;2022-08-21T11:35:23;1.60;;;1.50;;
23617;SDS011;18207;32.078;34.818;2022-08-21T11:38:10;1.60;;;1.50;;
23617;SDS011;18207;32.078;34.818;2022-08-21T11:41:06;1.98;;;1.70;;
23617;SDS011;18207;32.078;34.818;2022-08-21T11:43:54;1.40;;;1.30;;
23617;SDS011;18207;32.078;34.818;2022-08-21T11:46:43;1.63;;;1.52;;
23617;SDS011;18207;32.078;34.818;2022-08-21T11:49:32;1.73;;;1.63;;
23617;SDS011;18207;32.078;34.818;2022-08-21T11:52:19;1.55;;;1.50;;
23617;SDS011;18207;32.078;34.818;2022-08-21T11:55:00;1.73;;;1.63;;
23617;SDS011;18207;32.078;34.818;2022-08-21T11:57:49;1.60;;;1.50;;
23617;SDS011;18207;32.078;34.818;2022-08-21T12:00:29;1.60;;;1.50;;
23617;SDS011;18207;32.078;34.818;2022-08-21T12:03:09;1.60;;;1.50;;
23617;SDS011;18207;32.078;34.818;2022-08-21T12:05:55;1.73;;;1.63;;
23617;SDS011;18207;32.078;34.818;2022-08-21T12:08:30;1.33;;;1.30;;
23617;SDS011;18207;32.078;34.818;2022-08-21T12:11:08;1.58;;;1.48;;
23617;SDS011;18207;32.078;34.818;2022-08-21T12:13:58;1.73;;;1.65;;
23617;SDS011;18207;32.078;34.818;2022-08-21T12:16:42;1.60;;;1.50;;
23617;SDS011;18207;32.078;34.818;2022-08-21T12:19:30;1.30;;;1.30;;
23617;SDS011;18207;32.078;34.818;2022-08-21T12:22:07;1.65;;;1.55;;
23617;SDS011;18207;32.078;34.818;2022-08-21T12:24:42;1.50;;;1.40;;
23617;SDS011;18207;32.078;34.818;2022-08-21T12:27:21;1.50;;;1.40;;
23617;SDS011;18207;32.078;34.818;2022-08-21T12:29:59;1.33;;;1.30;;
23617;SDS011;18207;32.078;34.818;2022-08-21T12:32:42;1.13;;;1.13;;
23617;SDS011;18207;32.078;34.818;2022-08-21T12:35:27;1.17;;;1.15;;
23617;SDS011;18207;32.078;34.818;2022-08-21T12:38:07;1.50;;;1.40;;
23617;SDS011;18207;32.078;34.818;2022-08-21T12:40:49;1.30;;;1.30;;
23617;SDS011;18207;32.078;34.818;2022-08-21T12:43:26;1.63;;;1.35;;
23617;SDS011;18207;32.078;34.818;2022-08-21T12:46:15;1.40;;;1.30;;
23617;SDS011;18207;32.078;34.818;2022-08-21T12:48:51;1.10;;;1.10;;
23617;SDS011;18207;32.078;34.818;2022-08-21T12:51:32;1.20;;;1.20;;
23617;SDS011;18207;32.078;34.818;2022-08-21T12:54:26;1.30;;;1.30;;
23617;SDS011;18207;32.078;34.818;2022-08-21T12:57:00;1.15;;;1.15;;
23617;SDS011;18207;32.078;34.818;2022-08-21T12:59:39;1.45;;;1.38;;
23617;SDS011;18207;32.078;34.818;2022-08-21T13:02:13;1.30;;;1.30;;
23617;SDS011;18207;32.078;34.818;2022-08-21T13:04:50;2.10;;;1.20;;
23617;SDS011;18207;32.078;34.818;2022-08-21T13:07:27;1.30;;;1.30;;
23617;SDS011;18207;32.078;34.818;2022-08-21T13:10:02;1.35;;;1.25;;
23617;SDS011;18207;32.078;34.818;2022-08-21T13:12:39;1.48;;;1.38;;
23617;SDS011;18207;32.078;34.818;2022-08-21T13:15:12;1.20;;;1.20;;
23617;SDS011;18207;32.078;34.818;2022-08-21T13:17:59;1.08;;;1.08;;
23617;SDS011;18207;32.078;34.818;2022-08-21T13:20:34;0.90;;;0.90;;
23617;SDS011;18207;32.078;34.818;2022-08-21T13:23:18;1.20;;;1.20;;
23617;SDS011;18207;32.078;34.818;2022-08-21T13:25:57;1.10;;;1.10;;
23617;SDS011;18207;32.078;34.818;2022-08-21T13:28:34;1.45;;;1.35;;
23617;SDS011;18207;32.078;34.818;2022-08-21T13:31:06;1.25;;;1.15;;
23617;SDS011;18207;32.078;34.818;2022-08-21T13:33:40;1.50;;;1.40;;
23617;SDS011;18207;32.078;34.818;2022-08-21T13:36:18;1.25;;;1.17;;
23617;SDS011;18207;32.078;34.818;2022-08-21T13:38:56;1.20;;;1.20;;
23617;SDS011;18207;32.078;34.818;2022-08-21T13:41:31;1.50;;;1.40;;
23617;SDS011;18207;32.078;34.818;2022-08-21T13:44:13;1.38;;;1.27;;
23617;SDS011;18207;32.078;34.818;2022-08-21T13:46:47;1.40;;;1.30;;
23617;SDS011;18207;32.078;34.818;2022-08-21T13:49:22;1.48;;;1.33;;
23617;SDS011;18207;32.078;34.818;2022-08-21T13:52:00;1.42;;;1.40;;
23617;SDS011;18207;32.078;34.818;2022-08-21T13:54:37;1.48;;;1.40;;
23617;SDS011;18207;32.078;34.818;2022-08-21T13:57:17;1.33;;;1.23;;
23617;SDS011;18207;32.078;34.818;2022-08-21T14:00:09;1.20;;;1.20;;
23617;SDS011;18207;32.078;34.818;2022-08-21T14:02:44;1.27;;;1.27;;
23617;SDS011;18207;32.078;34.818;2022-08-21T14:05:20;1.48;;;1.40;;
23617;SDS011;18207;32.078;34.818;2022-08-21T14:07:57;1.70;;;1.60;;
23617;SDS011;18207;32.078;34.818;2022-08-21T14:10:41;1.50;;;1.40;;
23617;SDS011;18207;32.078;34.818;2022-08-21T14:13:36;1.40;;;1.40;;
23617;SDS011;18207;32.078;34.818;2022-08-21T14:16:17;1.40;;;1.40;;
23617;SDS011;18207;32.078;34.818;2022-08-21T14:18:53;1.40;;;1.40;;
23617;SDS011;18207;32.078;34.818;2022-08-21T14:21:41;1.10;;;1.10;;
23617;SDS011;18207;32.078;34.818;2022-08-21T14:24:14;1.45;;;1.38;;
23617;SDS011;18207;32.078;34.818;2022-08-21T14:27:03;1.55;;;1.52;;
23617;SDS011;18207;32.078;34.818;2022-08-21T14:29:37;1.42;;;1.35;;
23617;SDS011;18207;32.078;34.818;2022-08-21T14:32:12;1.45;;;1.45;;
23617;SDS011;18207;32.078;34.818;2022-08-21T14:34:51;1.58;;;1.48;;
23617;SDS011;18207;32.078;34.818;2022-08-21T14:37:24;1.42;;;1.38;;
23617;SDS011;18207;32.078;34.818;2022-08-21T14:39:56;1.35;;;1.35;;
23617;SDS011;18207;32.078;34.818;2022-08-21T14:42:29;1.80;;;1.70;;
23617;SDS011;18207;32.078;34.818;2022-08-21T14:45:13;1.50;;;1.40;;
23617;SDS011;18207;32.078;34.818;2022-08-21T14:47:53;1.80;;;1.38;;
23617;SDS011;18207;32.078;34.818;2022-08-21T14:50:23;1.30;;;1.20;;
23617;SDS011;18207;32.078;34.818;2022-08-21T14:52:55;1.23;;;1.23;;
23617;SDS011;18207;32.078;34.818;2022-08-21T14:55:26;1.70;;;1.60;;
23617;SDS011;18207;32.078;34.818;2022-08-21T14:58:04;1.30;;;1.30;;
23617;SDS011;18207;32.078;34.818;2022-08-21T15:00:35;1.85;;;1.35;;
23617;SDS011;18207;32.078;34.818;2022-08-21T15:03:07;1.35;;;1.33;;
23617;SDS011;18207;32.078;34.818;2022-08-21T15:05:38;1.50;;;1.50;;
23617;SDS011;18207;32.078;34.818;2022-08-21T15:08:09;1.33;;;1.33;;
23617;SDS011;18207;32.078;34.818;2022-08-21T15:10:40;1.33;;;1.33;;
23617;SDS011;18207;32.078;34.818;2022-08-21T15:13:34;1.52;;;1.42;;
23617;SDS011;18207;32.078;34.818;2022-08-21T15:16:07;1.52;;;1.42;;
23617;SDS011;18207;32.078;34.818;2022-08-21T15:18:40;1.70;;;1.60;;
23617;SDS011;18207;32.078;34.818;2022-08-21T15:21:11;1.65;;;1.55;;
23617;SDS011;18207;32.078;34.818;2022-08-21T15:23:42;1.90;;;1.77;;
23617;SDS011;18207;32.078;34.818;2022-08-21T15:26:13;1.33;;;1.33;;
23617;SDS011;18207;32.078;34.818;2022-08-21T15:28:45;1.45;;;1.38;;
23617;SDS011;18207;32.078;34.818;2022-08-21T15:31:16;1.52;;;1.45;;
23617;SDS011;18207;32.078;34.818;2022-08-21T15:33:47;1.50;;;1.40;;